Time;durP1;ratioP1;P1;durP2;ratioP2;P2;SDS_P1;SDS_P2;PMS_P1;PMS_P2;Temp;Humidity;BMP_temperature;BMP_pressure;BME280_temperature;BME280_humidity;BME280_pressure;Samples;Min_cycle;Max_cycle;Signal;HPM_P1;HPM_P2
2022/11/27 00:03:16;;;;;;;;;;;;;;;;;;5240311;22;19908;-85
2022/11/27 00:08:18;;;;;;;;;;;;;;;;;;5543325;22;19909;-84
2022/11/27 00:10:46;;;;;;;;;;;;;;;;;;5123782;28;19911;-83
2022/11/27 00:13:12;;;;;;;;;;;;;;;;;;5123795;28;19896;-84
2022/11/27 00:23:37;;;;;;;;;;;;;;;;;;5384519;22;19908;-84
2022/11/27 00:26:03;;;;;;;;;;;;;;;;;;5123525;28;19900;-84
2022/11/27 00:28:34;;;;;;;;;;;;;;;;;;5122046;28;19903;-82
2022/11/27 00:33:36;;;;;;;;;;;;;;;;;;5282615;22;19928;-84
2022/11/27 00:36:07;;;;;;;;;;;;;;;;;;5122166;28;19903;-83
2022/11/27 00:38:34;;;;;;;;;;;;;;;;;;5121493;28;19963;-82
2022/11/27 00:41:00;;;;;;;;;;;;;;;;;;5276739;22;19932;-84
2022/11/27 00:51:14;;;;;;;;;;;;;;;;;;5593995;22;19916;-84
2022/11/27 01:04:05;;;;;;;;;;;;;;;;;;5351758;22;19939;-83
2022/11/27 01:09:06;;;;;;;;;;;;;;;;;;5174965;22;19915;-82
2022/11/27 01:14:09;;;;;;;;;;;;;;;;;;5110497;22;19908;-83
2022/11/27 01:16:36;;;;;;;;;;;;;;;;;;5084079;28;19919;-82
2022/11/27 01:19:02;;;;;;;;;;;;;;;;;;5083333;28;19896;-84
2022/11/27 01:21:28;;;;;;;;;;;;;;;;;;5083766;28;19954;-83
2022/11/27 01:23:54;;;;;;;;;;;;;;;;;;5083407;28;19896;-83
2022/11/27 01:28:57;;;;;;;;;;;;;;;;;;5159622;22;19967;-84
2022/11/27 01:31:24;;;;;;;;;;;;;;;;;;5495372;22;19908;-84
2022/11/27 01:33:50;;;;;;;;;;;;;;;;;;5084403;28;19928;-83
2022/11/27 01:59:42;;;;;;;;;;;;;;;;;;5114166;22;20235;-81
2022/11/27 02:02:08;;;;;;;;;;;;;;;;;;5331339;22;19916;-83
2022/11/27 02:04:34;;;;;;;;;;;;;;;;;;5549272;23;19924;-83
2022/11/27 02:14:48;;;;;;;;;;;;;;;;;;5157640;22;19908;-84
2022/11/27 02:51:18;;;;;;;;;;;;;;;;;;6164391;22;19915;-84
2022/11/27 02:53:47;;;;;;;;;;;;;;;;;;5061057;28;19975;-83
2022/11/27 02:56:13;;;;;;;;;;;;;;;;;;5061852;28;19941;-84
2022/11/27 02:58:42;;;;;;;;;;;;;;;;;;5061951;28;19968;-83
2022/11/27 03:03:45;;;;;;;;;;;;;;;;;;5123531;22;19932;-83
2022/11/27 03:06:27;;;;;;;;;;;;;;;;;;5452252;22;19930;-83
2022/11/27 03:11:33;;;;;;;;;;;;;;;;;;6168660;22;19916;-82
2022/11/27 03:14:00;;;;;;;;;;;;;;;;;;5138655;22;19915;-83
2022/11/27 03:16:26;;;;;;;;;;;;;;;;;;5078708;28;19921;-82
2022/11/27 03:18:52;;;;;;;;;;;;;;;;;;5061696;28;19917;-82
2022/11/27 03:21:18;;;;;;;;;;;;;;;;;;5061639;28;19904;-82
2022/11/27 03:23:44;;;;;;;;;;;;;;;;;;5061429;28;19917;-82
2022/11/27 03:26:10;;;;;;;;;;;;;;;;;;5061550;28;19913;-83
2022/11/27 03:28:37;;;;;;;;;;;;;;;;;;5061444;28;19920;-82
2022/11/27 03:31:03;;;;;;;;;;;;;;;;;;5061639;28;19931;-82
2022/11/27 03:33:30;;;;;;;;;;;;;;;;;;5061226;28;19905;-82
2022/11/27 03:35:56;;;;;;;;;;;;;;;;;;5061361;28;19913;-82
2022/11/27 03:38:22;;;;;;;;;;;;;;;;;;5060282;28;19904;-82
2022/11/27 03:40:48;;;;;;;;;;;;;;;;;;5061370;28;19936;-82
2022/11/27 03:43:14;;;;;;;;;;;;;;;;;;5060894;28;19900;-82
2022/11/27 03:45:40;;;;;;;;;;;;;;;;;;5061724;28;19908;-82
2022/11/27 03:48:06;;;;;;;;;;;;;;;;;;5061241;28;19996;-83
2022/11/27 03:50:33;;;;;;;;;;;;;;;;;;5078783;28;19904;-81
2022/11/27 03:52:59;;;;;;;;;;;;;;;;;;5078431;28;19932;-83
2022/11/27 03:55:25;;;;;;;;;;;;;;;;;;5061473;28;19908;-83
2022/11/27 04:00:30;;;;;;;;;;;;;;;;;;5974165;22;19959;-83
2022/11/27 04:05:32;;;;;;;;;;;;;;;;;;5080633;22;19976;-82
2022/11/27 04:07:58;;;;;;;;;;;;;;;;;;5060643;28;19915;-82
2022/11/27 04:10:24;;;;;;;;;;;;;;;;;;5061064;28;19951;-82
2022/11/27 04:12:50;;;;;;;;;;;;;;;;;;5060947;28;19934;-82
2022/11/27 04:15:16;;;;;;;;;;;;;;;;;;5062295;28;19898;-82
2022/11/27 04:17:42;;;;;;;;;;;;;;;;;;5065149;28;19956;-82
2022/11/27 04:20:08;;;;;;;;;;;;;;;;;;5064748;28;19972;-82
2022/11/27 04:22:34;;;;;;;;;;;;;;;;;;5065134;28;19927;-82
2022/11/27 04:25:00;;;;;;;;;;;;;;;;;;5081720;28;19897;-82
2022/11/27 04:27:27;;;;;;;;;;;;;;;;;;5064713;28;19897;-82
2022/11/27 04:29:52;;;;;;;;;;;;;;;;;;5064596;28;19897;-82
2022/11/27 04:32:18;;;;;;;;;;;;;;;;;;5421997;22;19923;-81
2022/11/27 04:37:20;;;;;;;;;;;;;;;;;;5148782;22;19932;-82
2022/11/27 04:39:47;;;;;;;;;;;;;;;;;;5081645;28;19912;-82
2022/11/27 04:42:13;;;;;;;;;;;;;;;;;;5063585;22;20299;-80
2022/11/27 04:44:39;;;;;;;;;;;;;;;;;;5055216;28;19909;-80
2022/11/27 04:47:05;;;;;;;;;;;;;;;;;;5037500;28;19909;-81
2022/11/27 04:49:31;;;;;;;;;;;;;;;;;;5037464;28;19913;-80
2022/11/27 04:51:56;;;;;;;;;;;;;;;;;;5037571;28;19909;-81
2022/11/27 04:54:22;;;;;;;;;;;;;;;;;;5037749;28;20312;-80
2022/11/27 04:56:48;;;;;;;;;;;;;;;;;;5037759;28;20081;-81
2022/11/27 04:59:14;;;;;;;;;;;;;;;;;;5037580;28;19932;-80
2022/11/27 05:01:40;;;;;;;;;;;;;;;;;;5037817;28;19933;-80
2022/11/27 05:04:06;;;;;;;;;;;;;;;;;;5037347;28;19909;-82
2022/11/27 05:06:32;;;;;;;;;;;;;;;;;;5037171;28;20000;-80
2022/11/27 05:09:01;;;;;;;;;;;;;;;;;;5037386;28;19908;-80
2022/11/27 05:11:27;;;;;;;;;;;;;;;;;;5055401;28;19955;-81
2022/11/27 05:14:13;;;;;;;;;;;;;;;;;;5037542;28;20318;-80
2022/11/27 05:16:38;;;;;;;;;;;;;;;;;;5054851;28;19955;-80
2022/11/27 05:19:04;;;;;;;;;;;;;;;;;;5037439;28;19909;-80
2022/11/27 05:21:30;;;;;;;;;;;;;;;;;;5037286;28;19913;-80
2022/11/27 05:23:56;;;;;;;;;;;;;;;;;;5037260;28;19909;-80
2022/11/27 05:26:22;;;;;;;;;;;;;;;;;;5036759;28;19967;-83
2022/11/27 05:28:48;;;;;;;;;;;;;;;;;;5037028;28;19962;-86
2022/11/27 05:31:14;;;;;;;;;;;;;;;;;;5037117;28;19916;-81
2022/11/27 05:33:40;;;;;;;;;;;;;;;;;;5036850;28;19912;-80
2022/11/27 05:36:05;;;;;;;;;;;;;;;;;;5036985;28;19959;-79
2022/11/27 05:38:31;;;;;;;;;;;;;;;;;;5036674;28;20365;-81
2022/11/27 05:40:57;;;;;;;;;;;;;;;;;;5037082;28;19916;-83
2022/11/27 05:43:23;;;;;;;;;;;;;;;;;;5036740;28;20470;-81
2022/11/27 05:45:49;;;;;;;;;;;;;;;;;;5036762;28;19913;-82
2022/11/27 05:48:15;;;;;;;;;;;;;;;;;;5054512;28;19909;-80
2022/11/27 05:50:41;;;;;;;;;;;;;;;;;;5036973;28;20015;-81
2022/11/27 05:53:07;;;;;;;;;;;;;;;;;;5036720;28;19913;-80
2022/11/27 05:55:33;;;;;;;;;;;;;;;;;;5036562;28;19908;-80
2022/11/27 05:57:59;;;;;;;;;;;;;;;;;;5036896;28;19916;-85
2022/11/27 06:00:25;;;;;;;;;;;;;;;;;;5036648;28;19936;-85
2022/11/27 06:02:51;;;;;;;;;;;;;;;;;;5049268;28;19901;-84
2022/11/27 06:05:17;;;;;;;;;;;;;;;;;;5039575;28;19920;-80
2022/11/27 06:07:43;;;;;;;;;;;;;;;;;;5058917;28;19981;-81
2022/11/27 06:10:09;;;;;;;;;;;;;;;;;;5036821;28;19963;-81
2022/11/27 06:12:35;;;;;;;;;;;;;;;;;;5054163;28;20428;-80
2022/11/27 06:15:01;;;;;;;;;;;;;;;;;;5054206;28;19913;-81
2022/11/27 06:17:27;;;;;;;;;;;;;;;;;;5036072;28;19909;-79
2022/11/27 06:19:53;;;;;;;;;;;;;;;;;;5036146;28;19912;-79
2022/11/27 06:22:18;;;;;;;;;;;;;;;;;;5036092;28;20276;-80
2022/11/27 06:24:44;;;;;;;;;;;;;;;;;;5036019;28;19909;-80
2022/11/27 06:27:10;;;;;;;;;;;;;;;;;;5036266;28;20012;-80
2022/11/27 06:29:36;;;;;;;;;;;;;;;;;;5036103;28;19952;-80
2022/11/27 06:32:02;;;;;;;;;;;;;;;;;;5035927;28;19909;-80
2022/11/27 06:34:29;;;;;;;;;;;;;;;;;;5053794;28;19913;-80
2022/11/27 06:36:55;;;;;;;;;;;;;;;;;;5035809;28;19916;-80
2022/11/27 06:39:20;;;;;;;;;;;;;;;;;;5035145;28;19913;-80
2022/11/27 06:41:46;;;;;;;;;;;;;;;;;;5035606;28;19913;-82
2022/11/27 06:44:12;;;;;;;;;;;;;;;;;;5036013;28;19909;-82
2022/11/27 06:46:38;;;;;;;;;;;;;;;;;;5035685;28;19909;-81
2022/11/27 06:49:04;;;;;;;;;;;;;;;;;;5035297;28;19948;-80
2022/11/27 06:51:30;;;;;;;;;;;;;;;;;;5037324;28;19983;-81
2022/11/27 06:53:56;;;;;;;;;;;;;;;;;;5035551;28;20258;-80
2022/11/27 06:56:22;;;;;;;;;;;;;;;;;;5035655;28;19958;-79
2022/11/27 06:58:48;;;;;;;;;;;;;;;;;;5036260;28;19909;-79
2022/11/27 07:01:13;;;;;;;;;;;;;;;;;;5037948;28;20357;-82
2022/11/27 07:03:39;;;;;;;;;;;;;;;;;;5039840;28;19916;-80
2022/11/27 07:06:05;;;;;;;;;;;;;;;;;;5035283;28;19909;-79
2022/11/27 07:08:31;;;;;;;;;;;;;;;;;;5053139;28;19920;-80
2022/11/27 07:10:57;;;;;;;;;;;;;;;;;;5053184;28;19909;-82
2022/11/27 07:13:23;;;;;;;;;;;;;;;;;;5035319;28;20287;-80
2022/11/27 07:15:49;;;;;;;;;;;;;;;;;;5053089;28;19915;-80
2022/11/27 07:18:15;;;;;;;;;;;;;;;;;;5035268;28;20000;-79
2022/11/27 07:20:41;;;;;;;;;;;;;;;;;;5035517;28;19913;-80
2022/11/27 07:23:06;;;;;;;;;;;;;;;;;;5035232;28;19916;-79
2022/11/27 07:25:32;;;;;;;;;;;;;;;;;;5053087;28;19999;-79
2022/11/27 07:27:58;;;;;;;;;;;;;;;;;;5035240;28;19909;-79
2022/11/27 07:30:24;;;;;;;;;;;;;;;;;;5035230;28;19909;-78
2022/11/27 07:32:50;;;;;;;;;;;;;;;;;;5035214;28;20007;-79
2022/11/27 07:35:16;;;;;;;;;;;;;;;;;;5035090;28;19916;-81
2022/11/27 07:37:42;;;;;;;;;;;;;;;;;;5035113;28;19909;-82
2022/11/27 07:40:08;;;;;;;;;;;;;;;;;;5053136;28;19916;-80
2022/11/27 07:42:34;;;;;;;;;;;;;;;;;;5034951;28;20358;-80
2022/11/27 07:45:00;;;;;;;;;;;;;;;;;;5035034;28;19999;-81
2022/11/27 07:47:26;;;;;;;;;;;;;;;;;;5035041;28;20007;-81
2022/11/27 07:49:53;;;;;;;;;;;;;;;;;;5037206;28;19931;-79
2022/11/27 07:52:19;;;;;;;;;;;;;;;;;;5057045;28;19909;-79
2022/11/27 07:54:45;;;;;;;;;;;;;;;;;;5038710;28;20287;-79
2022/11/27 07:57:11;;;;;;;;;;;;;;;;;;5039011;28;20027;-79
2022/11/27 07:59:37;;;;;;;;;;;;;;;;;;5038842;28;19909;-79
2022/11/27 08:02:03;;;;;;;;;;;;;;;;;;5038975;28;19916;-80
2022/11/27 08:04:29;;;;;;;;;;;;;;;;;;5038824;28;19916;-80
2022/11/27 08:06:56;;;;;;;;;;;;;;;;;;5038881;28;19916;-81
2022/11/27 08:09:22;;;;;;;;;;;;;;;;;;5038992;28;19916;-83
2022/11/27 08:11:48;;;;;;;;;;;;;;;;;;5038811;28;19909;-81
2022/11/27 08:14:15;;;;;;;;;;;;;;;;;;5039371;28;19979;-79
2022/11/27 08:16:40;;;;;;;;;;;;;;;;;;5039518;28;19912;-79
2022/11/27 08:19:06;;;;;;;;;;;;;;;;;;5039562;28;19909;-81
2022/11/27 08:21:32;;;;;;;;;;;;;;;;;;5038915;28;19909;-81
2022/11/27 08:23:58;;;;;;;;;;;;;;;;;;5039160;28;20490;-83
2022/11/27 08:26:26;;;;;;;;;;;;;;;;;;5039852;28;20311;-80
2022/11/27 08:28:52;;;;;;;;;;;;;;;;;;5039694;28;20379;-82
2022/11/27 08:31:19;;;;;;;;;;;;;;;;;;5039308;28;19916;-79
2022/11/27 08:33:45;;;;;;;;;;;;;;;;;;5040126;28;20341;-81
2022/11/27 08:36:11;;;;;;;;;;;;;;;;;;5056817;28;19920;-79
2022/11/27 08:38:37;;;;;;;;;;;;;;;;;;5039302;28;19948;-80
2022/11/27 08:41:03;;;;;;;;;;;;;;;;;;5038809;28;20004;-80
2022/11/27 08:43:29;;;;;;;;;;;;;;;;;;5038817;28;19917;-81
2022/11/27 08:45:54;;;;;;;;;;;;;;;;;;5039719;28;19959;-80
2022/11/27 08:48:20;;;;;;;;;;;;;;;;;;5039361;28;19913;-80
2022/11/27 08:50:46;;;;;;;;;;;;;;;;;;5039588;28;20569;-81
2022/11/27 08:53:12;;;;;;;;;;;;;;;;;;5038463;28;19912;-85
2022/11/27 08:55:38;;;;;;;;;;;;;;;;;;5038677;28;19909;-80
2022/11/27 08:58:04;;;;;;;;;;;;;;;;;;5060074;28;19909;-78
2022/11/27 09:00:30;;;;;;;;;;;;;;;;;;5037055;28;19959;-81
2022/11/27 09:02:56;;;;;;;;;;;;;;;;;;5040896;28;20280;-80
2022/11/27 09:05:22;;;;;;;;;;;;;;;;;;5063175;28;19979;-78
2022/11/27 09:07:47;;;;;;;;;;;;;;;;;;5059287;28;19909;-80
2022/11/27 09:10:13;;;;;;;;;;;;;;;;;;5050677;28;19968;-78
2022/11/27 09:12:39;;;;;;;;;;;;;;;;;;5042370;28;19915;-78
2022/11/27 09:15:05;;;;;;;;;;;;;;;;;;5042240;28;19966;-77
2022/11/27 09:17:31;;;;;;;;;;;;;;;;;;5044088;28;20011;-79
2022/11/27 09:19:57;;;;;;;;;;;;;;;;;;5044954;28;19909;-80
2022/11/27 09:22:23;;;;;;;;;;;;;;;;;;5062560;28;19950;-80
2022/11/27 09:24:49;;;;;;;;;;;;;;;;;;5044672;28;19908;-79
2022/11/27 09:27:15;;;;;;;;;;;;;;;;;;5061503;28;19909;-80
2022/11/27 09:29:41;;;;;;;;;;;;;;;;;;5063210;28;19968;-79
2022/11/27 09:32:06;;;;;;;;;;;;;;;;;;5061219;28;19951;-79
2022/11/27 09:34:32;;;;;;;;;;;;;;;;;;5044257;28;19979;-79
2022/11/27 09:36:58;;;;;;;;;;;;;;;;;;5045041;28;19913;-78
2022/11/27 09:39:29;;;;;;;;;;;;;;;;;;5061868;28;19995;-78
2022/11/27 09:41:55;;;;;;;;;;;;;;;;;;5044291;28;19949;-79
2022/11/27 09:44:21;;;;;;;;;;;;;;;;;;5045343;28;19913;-80
2022/11/27 09:46:48;;;;;;;;;;;;;;;;;;5045411;28;19909;-79
2022/11/27 09:49:14;;;;;;;;;;;;;;;;;;5062860;28;19915;-80
2022/11/27 09:51:40;;;;;;;;;;;;;;;;;;5044845;28;19944;-77
2022/11/27 09:54:05;;;;;;;;;;;;;;;;;;5064294;28;19912;-80
2022/11/27 09:56:31;;;;;;;;;;;;;;;;;;5044536;28;19919;-80
2022/11/27 09:58:59;;;;;;;;;;;;;;;;;;5046143;28;20202;-79
2022/11/27 10:01:25;;;;;;;;;;;;;;;;;;5061823;28;19909;-80
2022/11/27 10:03:51;;;;;;;;;;;;;;;;;;5061840;28;20000;-81
2022/11/27 10:06:19;;;;;;;;;;;;;;;;;;5042404;28;19905;-79
2022/11/27 10:08:45;;;;;;;;;;;;;;;;;;5043545;28;20066;-82
2022/11/27 10:11:11;;;;;;;;;;;;;;;;;;5062242;28;20427;-80
2022/11/27 10:13:37;;;;;;;;;;;;;;;;;;5043482;28;19919;-80
2022/11/27 10:16:03;;;;;;;;;;;;;;;;;;5062187;28;19909;-78
2022/11/27 10:18:29;;;;;;;;;;;;;;;;;;5044502;28;19909;-80
2022/11/27 10:20:55;;;;;;;;;;;;;;;;;;5043524;28;19932;-78
2022/11/27 10:23:21;;;;;;;;;;;;;;;;;;5042942;28;19912;-79
2022/11/27 10:25:47;;;;;;;;;;;;;;;;;;5042158;28;19916;-79
2022/11/27 10:28:13;;;;;;;;;;;;;;;;;;5043395;28;19915;-78
2022/11/27 10:30:39;;;;;;;;;;;;;;;;;;5063349;28;19908;-81
2022/11/27 10:33:05;;;;;;;;;;;;;;;;;;5061743;28;19913;-83
2022/11/27 10:35:31;;;;;;;;;;;;;;;;;;5060193;28;19913;-78
2022/11/27 10:37:57;;;;;;;;;;;;;;;;;;5060233;28;19915;-78
2022/11/27 10:40:23;;;;;;;;;;;;;;;;;;5043362;28;19967;-78
2022/11/27 10:42:49;;;;;;;;;;;;;;;;;;5066444;22;20308;-77
2022/11/27 10:45:14;;;;;;;;;;;;;;;;;;5072840;28;19917;-77
2022/11/27 10:47:40;;;;;;;;;;;;;;;;;;5073106;28;19950;-78
2022/11/27 10:50:06;;;;;;;;;;;;;;;;;;5073157;28;19908;-78
2022/11/27 10:52:32;;;;;;;;;;;;;;;;;;5072168;28;19915;-77
2022/11/27 10:54:58;;;;;;;;;;;;;;;;;;5072522;28;19982;-76
2022/11/27 10:57:24;;;;;;;;;;;;;;;;;;5054765;28;19951;-77
2022/11/27 10:59:50;;;;;;;;;;;;;;;;;;5055052;28;19913;-77
2022/11/27 11:02:16;;;;;;;;;;;;;;;;;;5072872;28;19952;-77
2022/11/27 11:04:42;;;;;;;;;;;;;;;;;;5054529;28;19909;-77
2022/11/27 11:07:07;;;;;;;;;;;;;;;;;;5072340;28;19968;-77
2022/11/27 11:09:33;;;;;;;;;;;;;;;;;;5072256;28;19909;-77
2022/11/27 11:11:59;;;;;;;;;;;;;;;;;;5054568;28;19909;-77
2022/11/27 11:14:25;;;;;;;;;;;;;;;;;;5054617;28;19912;-77
2022/11/27 11:16:51;;;;;;;;;;;;;;;;;;5054487;28;19915;-77
2022/11/27 11:19:17;;;;;;;;;;;;;;;;;;5072197;28;19909;-78
2022/11/27 11:21:43;;;;;;;;;;;;;;;;;;5072864;28;20396;-77
2022/11/27 11:24:09;;;;;;;;;;;;;;;;;;5054110;28;19909;-77
2022/11/27 11:26:35;;;;;;;;;;;;;;;;;;5054574;28;19908;-77
2022/11/27 11:29:01;;;;;;;;;;;;;;;;;;5072350;28;19908;-77
2022/11/27 11:31:27;;;;;;;;;;;;;;;;;;5054595;28;20014;-77
2022/11/27 11:33:53;;;;;;;;;;;;;;;;;;5054235;28;19919;-77
2022/11/27 11:36:19;;;;;;;;;;;;;;;;;;5072306;28;19908;-77
2022/11/27 11:38:45;;;;;;;;;;;;;;;;;;5072262;28;19911;-78
2022/11/27 11:41:12;;;;;;;;;;;;;;;;;;5054291;28;20360;-76
2022/11/27 11:43:38;;;;;;;;;;;;;;;;;;5072162;28;20003;-76
2022/11/27 11:46:06;;;;;;;;;;;;;;;;;;5072050;28;19952;-78
2022/11/27 11:48:31;;;;;;;;;;;;;;;;;;5054330;28;19904;-76
2022/11/27 11:50:57;;;;;;;;;;;;;;;;;;5054466;28;20008;-77
2022/11/27 11:53:23;;;;;;;;;;;;;;;;;;5072053;28;20446;-77
2022/11/27 11:55:49;;;;;;;;;;;;;;;;;;5054712;28;19915;-78
2022/11/27 11:58:15;;;;;;;;;;;;;;;;;;5054706;28;20405;-78
2022/11/27 12:00:41;;;;;;;;;;;;;;;;;;5072036;28;19962;-78
2022/11/27 12:03:07;;;;;;;;;;;;;;;;;;5054039;28;19908;-77
2022/11/27 12:05:33;;;;;;;;;;;;;;;;;;5072686;28;19908;-78
2022/11/27 12:07:59;;;;;;;;;;;;;;;;;;5054438;28;20378;-78
2022/11/27 12:10:26;;;;;;;;;;;;;;;;;;5054066;28;19908;-77
2022/11/27 12:12:52;;;;;;;;;;;;;;;;;;5053640;28;19909;-76
2022/11/27 12:15:18;;;;;;;;;;;;;;;;;;5072587;28;19912;-76
2022/11/27 12:17:44;;;;;;;;;;;;;;;;;;5071656;28;20386;-75
2022/11/27 12:20:10;;;;;;;;;;;;;;;;;;5053892;28;19962;-72
2022/11/27 12:22:36;;;;;;;;;;;;;;;;;;5054042;28;19974;-75
2022/11/27 12:25:02;;;;;;;;;;;;;;;;;;5054121;28;19955;-76
2022/11/27 12:27:28;;;;;;;;;;;;;;;;;;5071970;28;19912;-76
2022/11/27 12:29:54;;;;;;;;;;;;;;;;;;5054287;28;19916;-76
2022/11/27 12:32:20;;;;;;;;;;;;;;;;;;5054112;28;19908;-76
2022/11/27 12:34:46;;;;;;;;;;;;;;;;;;5053854;28;19920;-76
2022/11/27 12:37:12;;;;;;;;;;;;;;;;;;5074579;28;20057;-76
2022/11/27 12:39:38;;;;;;;;;;;;;;;;;;5057642;28;19913;-76
2022/11/27 12:42:04;;;;;;;;;;;;;;;;;;5057611;28;19909;-76
2022/11/27 12:44:30;;;;;;;;;;;;;;;;;;5058220;28;19920;-76
2022/11/27 12:46:57;;;;;;;;;;;;;;;;;;5058366;28;19915;-76
2022/11/27 12:49:23;;;;;;;;;;;;;;;;;;5076243;28;19995;-76
2022/11/27 12:51:49;;;;;;;;;;;;;;;;;;5057463;28;19959;-76
2022/11/27 12:54:15;;;;;;;;;;;;;;;;;;5075838;28;19919;-76
2022/11/27 12:56:41;;;;;;;;;;;;;;;;;;5058034;28;19962;-76
2022/11/27 12:59:07;;;;;;;;;;;;;;;;;;5058202;28;19916;-76
2022/11/27 13:01:32;;;;;;;;;;;;;;;;;;5057801;28;19951;-76
2022/11/27 13:03:58;;;;;;;;;;;;;;;;;;5057906;28;19912;-76
2022/11/27 13:06:24;;;;;;;;;;;;;;;;;;5075524;28;19992;-75
2022/11/27 13:08:50;;;;;;;;;;;;;;;;;;5056935;28;19981;-76
2022/11/27 13:11:16;;;;;;;;;;;;;;;;;;5056801;28;19908;-76
2022/11/27 13:13:42;;;;;;;;;;;;;;;;;;5074446;28;19919;-76
2022/11/27 13:16:08;;;;;;;;;;;;;;;;;;5074522;28;20339;-76
2022/11/27 13:18:34;;;;;;;;;;;;;;;;;;5074533;28;19908;-76
2022/11/27 13:21:00;;;;;;;;;;;;;;;;;;5056779;28;19909;-75
2022/11/27 13:23:26;;;;;;;;;;;;;;;;;;5056507;28;20012;-76
2022/11/27 13:25:51;;;;;;;;;;;;;;;;;;5056272;28;19915;-76
2022/11/27 13:28:17;;;;;;;;;;;;;;;;;;5074260;28;20357;-76
2022/11/27 13:30:43;;;;;;;;;;;;;;;;;;5056438;28;19908;-76
2022/11/27 13:33:09;;;;;;;;;;;;;;;;;;5056133;28;22271;-76
2022/11/27 13:35:35;;;;;;;;;;;;;;;;;;5056182;28;19909;-76
2022/11/27 13:38:01;;;;;;;;;;;;;;;;;;5056075;28;20361;-76
2022/11/27 13:40:27;;;;;;;;;;;;;;;;;;5056151;28;19908;-76
2022/11/27 13:42:54;;;;;;;;;;;;;;;;;;5056017;28;19920;-76
2022/11/27 13:45:20;;;;;;;;;;;;;;;;;;5073979;28;20416;-76
2022/11/27 13:47:46;;;;;;;;;;;;;;;;;;5073602;28;19904;-76
2022/11/27 13:50:11;;;;;;;;;;;;;;;;;;5056015;28;19915;-76
2022/11/27 13:52:37;;;;;;;;;;;;;;;;;;5073701;28;19951;-76
2022/11/27 13:55:04;;;;;;;;;;;;;;;;;;5055772;28;19966;-76
2022/11/27 13:57:30;;;;;;;;;;;;;;;;;;5055743;28;20395;-76
2022/11/27 13:59:56;;;;;;;;;;;;;;;;;;5055857;28;19908;-76
2022/11/27 14:02:22;;;;;;;;;;;;;;;;;;5055715;28;20573;-75
2022/11/27 14:04:48;;;;;;;;;;;;;;;;;;5073645;28;19912;-76
2022/11/27 14:07:14;;;;;;;;;;;;;;;;;;5075989;28;19915;-76
2022/11/27 14:09:40;;;;;;;;;;;;;;;;;;5059686;28;19916;-76
2022/11/27 14:12:06;;;;;;;;;;;;;;;;;;5077745;28;20292;-76
2022/11/27 14:14:32;;;;;;;;;;;;;;;;;;5077811;28;19916;-77
2022/11/27 14:16:58;;;;;;;;;;;;;;;;;;5055547;28;20273;-76
2022/11/27 14:19:24;;;;;;;;;;;;;;;;;;5073343;28;19909;-75
2022/11/27 14:21:50;;;;;;;;;;;;;;;;;;5055176;28;19916;-77
2022/11/27 14:24:16;;;;;;;;;;;;;;;;;;5055115;28;20288;-75
2022/11/27 14:26:42;;;;;;;;;;;;;;;;;;5073086;28;20050;-76
2022/11/27 14:29:07;;;;;;;;;;;;;;;;;;5055114;28;20284;-76
2022/11/27 14:31:34;;;;;;;;;;;;;;;;;;5055186;28;19908;-76
2022/11/27 14:34:01;;;;;;;;;;;;;;;;;;5054944;28;20014;-76
2022/11/27 14:36:29;;;;;;;;;;;;;;;;;;5055045;28;19970;-75
2022/11/27 14:38:55;;;;;;;;;;;;;;;;;;5055085;28;19909;-76
2022/11/27 14:41:21;;;;;;;;;;;;;;;;;;5055490;28;20262;-76
2022/11/27 14:43:47;;;;;;;;;;;;;;;;;;5054620;28;20003;-75
2022/11/27 14:46:13;;;;;;;;;;;;;;;;;;5054716;28;19909;-76
2022/11/27 14:48:40;;;;;;;;;;;;;;;;;;5072705;28;19916;-76
2022/11/27 14:51:06;;;;;;;;;;;;;;;;;;5072829;28;19909;-76
2022/11/27 14:53:32;;;;;;;;;;;;;;;;;;5072695;28;19913;-76
2022/11/27 14:55:57;;;;;;;;;;;;;;;;;;5072670;28;19908;-75
2022/11/27 14:58:23;;;;;;;;;;;;;;;;;;5054161;28;20003;-76
2022/11/27 15:00:49;;;;;;;;;;;;;;;;;;5054688;28;19909;-76
2022/11/27 15:03:15;;;;;;;;;;;;;;;;;;5054552;28;20280;-75
2022/11/27 15:05:41;;;;;;;;;;;;;;;;;;5072661;28;19909;-76
2022/11/27 15:08:07;;;;;;;;;;;;;;;;;;5054506;28;20269;-76
2022/11/27 15:10:33;;;;;;;;;;;;;;;;;;5072478;28;19916;-76
2022/11/27 15:12:59;;;;;;;;;;;;;;;;;;5072278;28;20300;-76
2022/11/27 15:15:28;;;;;;;;;;;;;;;;;;5054404;28;20034;-76
2022/11/27 15:17:54;;;;;;;;;;;;;;;;;;5053231;28;19947;-76
2022/11/27 15:20:19;;;;;;;;;;;;;;;;;;5072404;28;19908;-76
2022/11/27 15:22:45;;;;;;;;;;;;;;;;;;5054023;28;19967;-76
2022/11/27 15:25:11;;;;;;;;;;;;;;;;;;5072273;28;20353;-76
2022/11/27 15:27:37;;;;;;;;;;;;;;;;;;5053924;28;19948;-75
2022/11/27 15:30:03;;;;;;;;;;;;;;;;;;5072277;28;20388;-76
2022/11/27 15:32:29;;;;;;;;;;;;;;;;;;5072027;28;19974;-76
2022/11/27 15:34:55;;;;;;;;;;;;;;;;;;5054166;28;19916;-76
2022/11/27 15:37:21;;;;;;;;;;;;;;;;;;5072123;28;20292;-76
2022/11/27 15:39:47;;;;;;;;;;;;;;;;;;5071411;28;20417;-76
2022/11/27 15:42:13;;;;;;;;;;;;;;;;;;5072084;28;19909;-76
2022/11/27 15:44:39;;;;;;;;;;;;;;;;;;5072241;28;20280;-76
2022/11/27 15:47:05;;;;;;;;;;;;;;;;;;5072255;28;19908;-76
2022/11/27 15:49:31;;;;;;;;;;;;;;;;;;5054079;28;19916;-76
2022/11/27 15:51:57;;;;;;;;;;;;;;;;;;5072296;28;20410;-76
2022/11/27 15:54:23;;;;;;;;;;;;;;;;;;5054210;28;19966;-76
2022/11/27 15:56:49;;;;;;;;;;;;;;;;;;5071798;28;20400;-76
2022/11/27 15:59:14;;;;;;;;;;;;;;;;;;5054156;28;19905;-75
2022/11/27 16:01:40;;;;;;;;;;;;;;;;;;5054158;28;19909;-76
2022/11/27 16:04:06;;;;;;;;;;;;;;;;;;5054249;28;20327;-76
2022/11/27 16:06:32;;;;;;;;;;;;;;;;;;5053802;28;20576;-75
2022/11/27 16:08:58;;;;;;;;;;;;;;;;;;5072114;28;19912;-76
2022/11/27 16:11:24;;;;;;;;;;;;;;;;;;5076871;28;19908;-76
2022/11/27 16:13:50;;;;;;;;;;;;;;;;;;5075759;28;20020;-76
2022/11/27 16:16:16;;;;;;;;;;;;;;;;;;5075563;28;19931;-75
2022/11/27 16:18:42;;;;;;;;;;;;;;;;;;5075518;28;19909;-76
2022/11/27 16:21:08;;;;;;;;;;;;;;;;;;5057726;28;19909;-76
2022/11/27 16:23:33;;;;;;;;;;;;;;;;;;5075492;28;19908;-77
2022/11/27 16:25:59;;;;;;;;;;;;;;;;;;5057429;28;20391;-76
2022/11/27 16:28:25;;;;;;;;;;;;;;;;;;5057515;28;20369;-76
2022/11/27 16:30:51;;;;;;;;;;;;;;;;;;5057518;28;19909;-76
2022/11/27 16:33:18;;;;;;;;;;;;;;;;;;5057071;28;19923;-76
2022/11/27 16:35:44;;;;;;;;;;;;;;;;;;5057037;28;20304;-76
2022/11/27 16:38:10;;;;;;;;;;;;;;;;;;5057112;28;19999;-76
2022/11/27 16:40:36;;;;;;;;;;;;;;;;;;5075355;28;19909;-76
2022/11/27 16:43:02;;;;;;;;;;;;;;;;;;5096694;22;20389;-80
2022/11/27 16:45:28;;;;;;;;;;;;;;;;;;5063557;28;19916;-80
2022/11/27 16:47:53;;;;;;;;;;;;;;;;;;5064060;28;20381;-79
2022/11/27 16:50:19;;;;;;;;;;;;;;;;;;5081287;28;19987;-82
2022/11/27 16:52:45;;;;;;;;;;;;;;;;;;5060888;28;20257;-80
2022/11/27 16:55:11;;;;;;;;;;;;;;;;;;5081123;28;19923;-77
2022/11/27 16:57:37;;;;;;;;;;;;;;;;;;5064454;28;20292;-80
2022/11/27 17:00:03;;;;;;;;;;;;;;;;;;5080033;28;19908;-78
2022/11/27 17:02:29;;;;;;;;;;;;;;;;;;5062520;28;19908;-83
2022/11/27 17:04:55;;;;;;;;;;;;;;;;;;5062699;28;19951;-77
2022/11/27 17:07:21;;;;;;;;;;;;;;;;;;5078083;28;20389;-82
2022/11/27 17:09:48;;;;;;;;;;;;;;;;;;5064454;28;19913;-77
2022/11/27 17:12:14;;;;;;;;;;;;;;;;;;5080456;28;20296;-77
2022/11/27 17:14:41;;;;;;;;;;;;;;;;;;5060661;28;20344;-78
2022/11/27 17:17:07;;;;;;;;;;;;;;;;;;5079158;28;20054;-77
2022/11/27 17:19:33;;;;;;;;;;;;;;;;;;5078447;28;19948;-77
2022/11/27 17:21:59;;;;;;;;;;;;;;;;;;5060807;28;20380;-76
2022/11/27 17:24:26;;;;;;;;;;;;;;;;;;5060703;28;19916;-78
2022/11/27 17:26:54;;;;;;;;;;;;;;;;;;5060056;28;20280;-77
2022/11/27 17:29:21;;;;;;;;;;;;;;;;;;5059928;28;19971;-77
2022/11/27 17:31:47;;;;;;;;;;;;;;;;;;5059487;28;19931;-80
2022/11/27 17:34:13;;;;;;;;;;;;;;;;;;5058412;28;20384;-78
2022/11/27 17:36:41;;;;;;;;;;;;;;;;;;5058286;28;19908;-79
2022/11/27 17:39:07;;;;;;;;;;;;;;;;;;5058034;28;19908;-78
2022/11/27 17:41:33;;;;;;;;;;;;;;;;;;5059825;28;19915;-81
2022/11/27 17:43:59;;;;;;;;;;;;;;;;;;5058005;28;19916;-79
2022/11/27 17:46:25;;;;;;;;;;;;;;;;;;5058986;28;19908;-79
2022/11/27 17:48:51;;;;;;;;;;;;;;;;;;5076698;28;19912;-84
2022/11/27 17:51:17;;;;;;;;;;;;;;;;;;5059436;28;19919;-82
2022/11/27 17:53:43;;;;;;;;;;;;;;;;;;5059878;28;19912;-80
2022/11/27 17:56:09;;;;;;;;;;;;;;;;;;5059168;28;20431;-82
2022/11/27 17:58:35;;;;;;;;;;;;;;;;;;5064746;28;19970;-81
2022/11/27 18:01:01;;;;;;;;;;;;;;;;;;5065593;28;19912;-82
2022/11/27 18:03:27;;;;;;;;;;;;;;;;;;5078066;28;19935;-77
2022/11/27 18:05:53;;;;;;;;;;;;;;;;;;5057864;28;20414;-79
2022/11/27 18:08:19;;;;;;;;;;;;;;;;;;5058484;28;19912;-82
2022/11/27 18:10:45;;;;;;;;;;;;;;;;;;5076637;28;19908;-82
2022/11/27 18:13:10;;;;;;;;;;;;;;;;;;5058241;28;20285;-79
2022/11/27 18:15:36;;;;;;;;;;;;;;;;;;5057686;28;19978;-78
2022/11/27 18:18:02;;;;;;;;;;;;;;;;;;5058696;28;19916;-83
2022/11/27 18:20:28;;;;;;;;;;;;;;;;;;5058323;28;19908;-81
2022/11/27 18:22:54;;;;;;;;;;;;;;;;;;5058090;28;19970;-81
2022/11/27 18:25:20;;;;;;;;;;;;;;;;;;5058064;28;19912;-80
2022/11/27 18:27:46;;;;;;;;;;;;;;;;;;5058372;28;20353;-80
2022/11/27 18:30:12;;;;;;;;;;;;;;;;;;5058296;28;19916;-80
2022/11/27 18:32:38;;;;;;;;;;;;;;;;;;5057952;28;20023;-78
2022/11/27 18:35:04;;;;;;;;;;;;;;;;;;5057437;28;19928;-80
2022/11/27 18:37:29;;;;;;;;;;;;;;;;;;5058963;28;19912;-80